This is the latest recevied weather packets stored in our database for station/object W7PLC. If no packets are shown the sender has not sent any weather packets the latest 10 day(s).
| Time | Temp. | Humidity | Pressure | Rain* | Wind** | Luminosity | Snow |
|---|---|---|---|---|---|---|---|
| 1778034468 | 16.67° C | 76% | 1013.5 hPa | 0 mm | - | 13 W/m² | - |
| 1778034166 | 16.67° C | 75% | 1013.4 hPa | 0 mm | - | 15 W/m² | - |
| 1778033864 | 16.67° C | 76% | 1013.4 hPa | 0 mm | - | 15 W/m² | - |
| 1778033561 | 17.22° C | 76% | 1013.4 hPa | 0 mm | - | 16 W/m² | - |
| 1778033257 | 17.22° C | 75% | 1013.4 hPa | 0 mm | - | 17 W/m² | - |
| 1778032653 | 17.22° C | 74% | 1013.5 hPa | 0 mm | - | 19 W/m² | - |
| 1778032047 | 17.78° C | 73% | 1013.3 hPa | 0 mm | - | 22 W/m² | - |
| 1778031441 | 17.78° C | 73% | 1013.3 hPa | 0 mm | - | 23 W/m² | - |
| 1778031138 | 18.33° C | 72% | 1013.3 hPa | 0 mm | - | 26 W/m² | - |
| 1778030834 | 18.33° C | 72% | 1013.3 hPa | 0 mm | - | 26 W/m² | - |
| 1778030531 | 18.33° C | 72% | 1013.3 hPa | 0 mm | - | 27 W/m² | - |
| 1778029623 | 18.89° C | 71% | 1013.3 hPa | 0 mm | - | 30 W/m² | - |
| 1778028714 | 20.56° C | 67% | 1013.3 hPa | 0 mm | - | 36 W/m² | - |
| 1778027803 | 20.56° C | 65% | 1013.4 hPa | 0 mm | - | 240 W/m² | - |
| 1778027195 | 20.56° C | 65% | 1013.5 hPa | 0 mm | - | 288 W/m² | - |
| 1778026892 | 20.56° C | 65% | 1013.4 hPa | 0 mm | - | 281 W/m² | - |
| 1778025982 | 20° C | 68% | 1013.5 hPa | 0 mm | - | 378 W/m² | - |
| 1778025680 | 20° C | 66% | 1013.5 hPa | 0 mm | - | 340 W/m² | - |
| 1778025378 | 20° C | 66% | 1013.7 hPa | 0 mm | - | 400 W/m² | - |
| 1778024166 | 19.44° C | 70% | 1013.9 hPa | 0 mm | - | 203 W/m² | - |
| 1778023863 | 18.89° C | 71% | 1013.9 hPa | 0 mm | - | 372 W/m² | - |
| 1778023561 | 18.89° C | 72% | 1013.9 hPa | 0 mm | - | 220 W/m² | - |
| 1778023258 | 18.89° C | 73% | 1013.8 hPa | 0 mm | - | 180 W/m² | - |
| 1778019924 | 17.22° C | 77% | 1014.4 hPa | 0 mm | - | 111 W/m² | - |
| 1778019620 | 17.22° C | 77% | 1014.6 hPa | 0 mm | - | 108 W/m² | - |
* Rain latest hour (hover to see other rain measurements)
** Current wind speed in m/s (hover to see current wind gust speed)